createdAt,value
2023-01-19T00:00:49.684Z,8.60
2023-01-19T00:03:17.830Z,10.98
2023-01-19T00:05:45.190Z,9.20
2023-01-19T00:08:15.167Z,9.65
2023-01-19T00:10:44.094Z,9.40
2023-01-19T00:13:10.859Z,10.02
2023-01-19T00:15:37.640Z,10.45
2023-01-19T00:18:04.446Z,10.98
2023-01-19T00:20:32.768Z,10.02
2023-01-19T00:23:00.069Z,11.98
2023-01-19T00:25:27.193Z,10.55
2023-01-19T00:27:53.924Z,9.57
2023-01-19T00:30:20.741Z,11.27
2023-01-19T00:32:47.415Z,10.82
2023-01-19T00:35:14.175Z,11.35
2023-01-19T00:37:40.936Z,10.45
2023-01-19T00:40:08.749Z,10.05
2023-01-19T00:42:41.310Z,10.15
2023-01-19T00:45:10.100Z,10.20
2023-01-19T00:47:37.171Z,11.73
2023-01-19T00:50:04.081Z,10.82
2023-01-19T00:52:30.781Z,10.32
2023-01-19T00:54:57.478Z,10.75
2023-01-19T00:57:24.153Z,10.50
2023-01-19T00:59:50.864Z,10.80
2023-01-19T01:02:17.748Z,11.27
2023-01-19T01:04:44.520Z,11.95
2023-01-19T01:07:11.206Z,10.70
2023-01-19T01:09:37.891Z,11.48
2023-01-19T01:12:06.046Z,10.13
2023-01-19T01:14:32.949Z,11.02
2023-01-19T01:17:00.562Z,10.70
2023-01-19T01:19:27.418Z,12.65
2023-01-19T01:21:55.448Z,10.93
2023-01-19T01:24:22.860Z,10.45
2023-01-19T01:26:49.567Z,10.60
2023-01-19T01:29:16.330Z,10.27
2023-01-19T01:31:43.047Z,11.05
2023-01-19T01:34:09.759Z,10.98
2023-01-19T01:36:36.580Z,10.20
2023-01-19T01:39:04.201Z,11.48
2023-01-19T01:41:32.301Z,9.50
2023-01-19T01:44:01.597Z,10.57
2023-01-19T01:46:30.979Z,10.35
2023-01-19T01:48:57.599Z,10.75
2023-01-19T01:51:41.850Z,11.98
2023-01-19T01:54:20.909Z,9.75
2023-01-19T01:56:49.972Z,10.18
2023-01-19T01:59:39.871Z,10.25
2023-01-19T02:02:41.760Z,9.77
2023-01-19T02:05:12.928Z,8.88
2023-01-19T02:08:19.668Z,9.55
2023-01-19T02:11:06.069Z,10.07
2023-01-19T02:16:08.639Z,9.35
2023-01-19T02:18:36.392Z,10.52
2023-01-19T02:21:14.071Z,10.13
2023-01-19T02:23:44.980Z,10.65
2023-01-19T02:26:16.124Z,11.13
2023-01-19T02:29:02.404Z,10.00
2023-01-19T02:31:31.227Z,10.98
2023-01-19T02:33:59.562Z,10.27
2023-01-19T02:36:39.284Z,10.45
2023-01-19T02:39:08.525Z,10.48
2023-01-19T02:41:41.448Z,11.60
2023-01-19T02:44:10.421Z,10.25
2023-01-19T02:46:38.428Z,10.00
2023-01-19T02:49:05.147Z,9.80
2023-01-19T02:51:32.194Z,11.13
2023-01-19T02:54:05.001Z,10.50
2023-01-19T02:56:56.117Z,10.85
2023-01-19T02:59:41.689Z,11.13
2023-01-19T03:02:28.886Z,9.70
2023-01-19T03:05:05.200Z,11.32
2023-01-19T03:08:08.607Z,9.65
2023-01-19T03:10:41.151Z,10.40
2023-01-19T03:13:19.629Z,11.02
2023-01-19T03:16:05.441Z,10.88
2023-01-19T03:18:35.965Z,10.80
2023-01-19T03:21:07.119Z,10.43
2023-01-19T03:23:36.979Z,11.15
2023-01-19T03:26:05.908Z,11.60
2023-01-19T03:28:34.434Z,10.95
2023-01-19T03:31:19.175Z,11.25
2023-01-19T03:33:50.948Z,10.95
2023-01-19T03:36:35.474Z,10.85
2023-01-19T03:39:05.271Z,11.48
2023-01-19T03:41:34.329Z,12.30
2023-01-19T03:44:01.811Z,12.10
2023-01-19T03:46:30.473Z,11.93
2023-01-19T03:48:58.370Z,11.35
2023-01-19T03:51:25.441Z,12.05
2023-01-19T03:53:52.278Z,11.18
2023-01-19T03:56:24.449Z,11.38
2023-01-19T03:58:51.638Z,10.60
2023-01-19T04:01:22.797Z,11.07
2023-01-19T04:03:50.457Z,10.30
2023-01-19T04:06:17.671Z,12.20
2023-01-19T04:08:44.477Z,11.07
2023-01-19T04:11:11.741Z,11.32
2023-01-19T04:13:38.447Z,11.10
2023-01-19T04:16:06.548Z,10.88
2023-01-19T04:18:34.897Z,10.20
2023-01-19T04:21:03.237Z,11.27
2023-01-19T04:23:30.195Z,11.82
2023-01-19T04:26:07.567Z,10.85
2023-01-19T04:28:36.939Z,11.32
2023-01-19T04:31:04.857Z,11.18
2023-01-19T04:33:31.549Z,11.18
2023-01-19T04:35:58.267Z,11.43
2023-01-19T04:38:26.231Z,11.50
2023-01-19T04:40:53.931Z,11.40
2023-01-19T04:43:21.942Z,12.65
2023-01-19T04:45:49.204Z,10.60
2023-01-19T04:48:18.843Z,11.52
2023-01-19T04:50:46.252Z,12.27
2023-01-19T04:53:13.701Z,11.13
2023-01-19T04:55:40.732Z,11.68
2023-01-19T04:58:07.637Z,12.18
2023-01-19T05:00:34.375Z,13.00
2023-01-19T05:03:01.828Z,12.73
2023-01-19T05:05:29.267Z,13.15
2023-01-19T05:07:55.932Z,13.43
2023-01-19T05:10:23.705Z,12.38
2023-01-19T05:12:51.163Z,12.38
2023-01-19T05:15:17.970Z,13.10
2023-01-19T05:17:44.798Z,11.68
2023-01-19T05:20:15.733Z,12.77
2023-01-19T05:22:43.246Z,13.40
2023-01-19T05:25:10.212Z,12.90
2023-01-19T05:27:38.042Z,11.65
2023-01-19T05:30:05.692Z,12.25
2023-01-19T05:32:32.928Z,12.65
2023-01-19T05:34:59.828Z,12.32
2023-01-19T05:37:26.603Z,13.35
2023-01-19T05:39:53.974Z,11.98
2023-01-19T05:42:20.927Z,13.20
2023-01-19T05:44:47.616Z,13.63
2023-01-19T05:47:14.293Z,14.00
2023-01-19T05:49:40.933Z,14.85
2023-01-19T05:52:07.690Z,13.40
2023-01-19T05:54:34.556Z,13.50
2023-01-19T05:57:02.391Z,14.57
2023-01-19T05:59:29.045Z,14.70
2023-01-19T06:01:55.921Z,13.25
2023-01-19T06:04:22.750Z,13.23
2023-01-19T06:06:49.739Z,12.38
2023-01-19T06:09:17.280Z,17.00
2023-01-19T06:11:45.080Z,15.20
2023-01-19T06:14:12.096Z,13.13
2023-01-19T06:16:38.839Z,13.02
2023-01-19T06:19:05.665Z,16.40
2023-01-19T06:21:32.528Z,15.15
2023-01-19T06:23:59.182Z,15.63
2023-01-19T06:26:26.283Z,16.05
2023-01-19T06:28:53.231Z,14.40
2023-01-19T06:31:19.978Z,13.68
2023-01-19T06:33:47.165Z,13.40
2023-01-19T06:36:13.854Z,13.65
2023-01-19T06:38:40.586Z,13.90
2023-01-19T06:41:07.232Z,15.63
2023-01-19T06:43:34.034Z,14.32
2023-01-19T06:46:00.866Z,14.45
2023-01-19T06:48:27.927Z,16.30
2023-01-19T06:50:55.282Z,15.45
2023-01-19T06:53:22.728Z,15.27
2023-01-19T06:55:49.394Z,15.00
2023-01-19T06:58:16.593Z,15.73
2023-01-19T07:00:43.382Z,14.20
2023-01-19T07:03:20.488Z,15.73
2023-01-19T07:05:49.821Z,15.77
2023-01-19T07:08:16.479Z,14.80
2023-01-19T07:11:25.599Z,17.20
2023-01-19T07:13:30.008Z,15.57
2023-01-19T07:15:56.885Z,17.92
2023-01-19T07:18:23.575Z,18.42
2023-01-19T07:20:50.362Z,16.60
2023-01-19T07:23:17.037Z,17.00
2023-01-19T07:25:46.845Z,16.13
2023-01-19T07:28:15.672Z,16.85
2023-01-19T07:30:43.663Z,15.57
2023-01-19T07:33:10.433Z,15.23
2023-01-19T07:35:37.212Z,14.82
2023-01-19T07:38:04.352Z,16.15
2023-01-19T07:40:31.065Z,15.10
2023-01-19T07:42:57.718Z,17.00
2023-01-19T07:45:24.362Z,16.83
2023-01-19T07:47:51.682Z,16.60
2023-01-19T07:50:21.338Z,17.20
2023-01-19T07:52:50.690Z,21.60
2023-01-19T07:55:17.523Z,23.98
2023-01-19T07:57:44.286Z,17.30
2023-01-19T08:00:11.571Z,15.80
2023-01-19T08:02:38.345Z,15.98
2023-01-19T08:05:05.351Z,15.02
2023-01-19T08:07:33.520Z,15.02
2023-01-19T08:10:00.174Z,15.70
2023-01-19T08:12:26.907Z,15.40
2023-01-19T08:14:53.750Z,16.02
2023-01-19T08:17:20.492Z,15.75
2023-01-19T08:19:47.129Z,15.40
2023-01-19T08:22:13.792Z,14.13
2023-01-19T08:24:40.407Z,14.48
2023-01-19T08:27:09.727Z,14.30
2023-01-19T08:29:36.631Z,13.88
2023-01-19T08:32:03.431Z,14.82
2023-01-19T08:34:31.040Z,13.40
2023-01-19T08:36:58.404Z,14.98
2023-01-19T08:39:25.435Z,14.40
2023-01-19T08:41:52.479Z,12.70
2023-01-19T08:44:19.465Z,13.23
2023-01-19T08:46:46.216Z,15.23
2023-01-19T08:49:12.979Z,14.27
2023-01-19T08:51:39.676Z,12.30
2023-01-19T08:54:06.598Z,12.43
2023-01-19T08:56:33.280Z,11.43
2023-01-19T08:59:09.251Z,12.10
2023-01-19T09:01:37.332Z,12.05
2023-01-19T09:04:04.324Z,12.10
2023-01-19T09:06:31.061Z,10.95
2023-01-19T09:08:57.985Z,11.90
2023-01-19T09:11:24.738Z,12.73
2023-01-19T09:13:51.447Z,12.23
2023-01-19T09:16:18.462Z,13.57
2023-01-19T09:18:46.035Z,11.90
2023-01-19T09:21:13.891Z,12.73
2023-01-19T09:23:40.574Z,12.90
2023-01-19T09:26:07.540Z,11.65
2023-01-19T09:28:34.700Z,11.80
2023-01-19T09:31:05.940Z,13.43
2023-01-19T09:33:33.181Z,13.95
2023-01-19T09:36:00.020Z,13.35
2023-01-19T09:38:27.014Z,12.40
2023-01-19T09:40:56.049Z,13.82
2023-01-19T09:43:28.531Z,12.45
2023-01-19T09:45:57.500Z,14.27
2023-01-19T09:48:33.042Z,13.90
2023-01-19T09:51:04.299Z,12.02
2023-01-19T09:53:40.517Z,11.88
2023-01-19T09:56:12.427Z,12.63
2023-01-19T09:58:39.733Z,13.10
2023-01-19T10:01:34.573Z,12.73
2023-01-19T10:04:29.883Z,11.85
2023-01-19T10:07:11.205Z,11.48
2023-01-19T10:09:57.123Z,11.23
2023-01-19T10:12:59.676Z,13.30
2023-01-19T10:16:03.892Z,12.50
2023-01-19T10:18:51.880Z,11.27
2023-01-19T10:21:28.992Z,10.38
2023-01-19T10:23:59.740Z,23.02
2023-01-19T10:26:37.064Z,10.73
2023-01-19T10:29:37.572Z,10.00
2023-01-19T10:32:26.233Z,12.45
2023-01-19T10:34:54.115Z,12.32
2023-01-19T10:37:31.690Z,11.18
2023-01-19T10:40:11.135Z,10.35
2023-01-19T10:42:40.419Z,12.65
2023-01-19T10:45:18.239Z,11.15
2023-01-19T10:47:47.058Z,9.85
2023-01-19T10:50:26.824Z,9.38
2023-01-19T10:52:57.038Z,8.05
2023-01-19T10:55:35.591Z,9.02
2023-01-19T10:58:02.331Z,9.23
2023-01-19T11:00:33.295Z,7.15
2023-01-19T11:03:00.997Z,8.23
2023-01-19T11:05:33.001Z,8.20
2023-01-19T11:07:59.871Z,8.43
2023-01-19T11:10:29.075Z,5.55
2023-01-19T11:12:58.800Z,7.10
2023-01-19T11:15:31.623Z,6.10
2023-01-19T11:17:58.964Z,5.38
2023-01-19T11:20:50.597Z,5.63
2023-01-19T11:23:29.411Z,5.75
2023-01-19T11:26:01.510Z,6.55
2023-01-19T11:28:30.143Z,4.70
2023-01-19T11:31:15.160Z,5.47
2023-01-19T11:33:53.376Z,5.05
2023-01-19T11:36:21.755Z,6.85
2023-01-19T11:38:54.254Z,6.78
2023-01-19T11:41:34.276Z,5.40
2023-01-19T11:44:28.507Z,5.65
2023-01-19T11:47:03.259Z,5.80
2023-01-19T11:50:04.456Z,5.90
2023-01-19T11:52:49.886Z,6.68
2023-01-19T11:55:41.756Z,5.35
2023-01-19T11:58:15.453Z,5.93
2023-01-19T12:00:57.435Z,4.22
2023-01-19T12:03:47.222Z,4.95
2023-01-19T12:06:25.500Z,5.53
2023-01-19T12:08:54.348Z,5.25
2023-01-19T12:11:31.529Z,5.78
2023-01-19T12:13:59.045Z,6.20
2023-01-19T12:16:29.511Z,5.90
2023-01-19T12:19:20.958Z,6.47
2023-01-19T12:21:48.422Z,5.57
2023-01-19T12:24:42.313Z,5.82
2023-01-19T12:27:42.519Z,6.53
2023-01-19T12:30:25.158Z,6.03
2023-01-19T12:32:52.117Z,5.18
2023-01-19T12:35:56.874Z,5.22
2023-01-19T12:38:58.813Z,5.18
2023-01-19T12:41:34.234Z,5.13
2023-01-19T12:44:14.548Z,5.15
2023-01-19T12:46:54.364Z,4.95
2023-01-19T12:49:32.352Z,5.25
2023-01-19T12:52:22.161Z,5.22
2023-01-19T12:55:07.420Z,5.30
2023-01-19T12:57:59.651Z,5.00
2023-01-19T13:00:26.290Z,5.03
2023-01-19T13:03:15.408Z,4.80
2023-01-19T13:05:42.138Z,4.93
2023-01-19T13:08:09.031Z,5.25
2023-01-19T13:11:02.945Z,5.32
2023-01-19T13:13:58.597Z,5.68
2023-01-19T13:16:28.121Z,5.10
2023-01-19T13:18:56.080Z,7.10
2023-01-19T13:21:36.719Z,7.07
2023-01-19T13:24:22.460Z,6.22
2023-01-19T13:26:49.182Z,5.32
2023-01-19T13:29:35.254Z,6.25
2023-01-19T13:32:12.939Z,5.22
2023-01-19T13:34:43.923Z,4.88
2023-01-19T13:37:20.290Z,5.32
2023-01-19T13:39:50.058Z,4.50
2023-01-19T13:42:39.270Z,5.60
2023-01-19T13:45:25.160Z,4.32
2023-01-19T13:47:53.339Z,4.57
2023-01-19T13:50:24.371Z,4.38
2023-01-19T13:52:53.890Z,4.53
2023-01-19T13:55:21.068Z,5.18
2023-01-19T13:57:49.532Z,4.63
2023-01-19T14:00:24.535Z,4.40
2023-01-19T14:03:21.598Z,4.50
2023-01-19T14:05:51.766Z,5.55
2023-01-19T14:08:20.172Z,5.10
2023-01-19T14:11:02.263Z,8.15
2023-01-19T14:13:43.166Z,7.55
2023-01-19T14:16:25.108Z,5.28
2023-01-19T14:19:03.097Z,4.85
2023-01-19T14:21:40.352Z,5.05
2023-01-19T14:24:09.565Z,7.43
2023-01-19T14:26:44.977Z,12.38
2023-01-19T14:29:32.879Z,6.68
2023-01-19T14:32:14.628Z,8.80
2023-01-19T14:35:04.419Z,6.45
2023-01-19T14:37:37.152Z,5.03
2023-01-19T14:40:08.090Z,5.88
2023-01-19T14:42:42.574Z,5.68
2023-01-19T14:45:37.040Z,6.78
2023-01-19T14:48:20.444Z,6.80
2023-01-19T14:51:01.998Z,15.00
2023-01-19T14:53:37.026Z,36.85
2023-01-19T14:56:06.060Z,32.75
2023-01-19T14:58:34.240Z,11.63
2023-01-19T15:01:01.445Z,8.35
2023-01-19T15:03:44.781Z,6.97
2023-01-19T15:06:21.205Z,7.53
2023-01-19T15:08:49.985Z,7.18
2023-01-19T15:11:35.329Z,10.52
2023-01-19T15:14:02.750Z,8.07
2023-01-19T15:16:31.869Z,9.70
2023-01-19T15:18:58.633Z,10.95
2023-01-19T15:21:28.229Z,10.13
2023-01-19T15:23:55.339Z,10.88
2023-01-19T15:26:25.074Z,8.40
2023-01-19T15:28:52.318Z,8.88
2023-01-19T15:31:21.962Z,7.18
2023-01-19T15:33:49.084Z,7.60
2023-01-19T15:36:18.562Z,7.78
2023-01-19T15:38:46.175Z,7.90
2023-01-19T15:41:24.895Z,9.82
2023-01-19T15:43:51.840Z,15.52
2023-01-19T15:46:23.145Z,13.50
2023-01-19T15:48:50.849Z,9.68
2023-01-19T15:51:25.077Z,10.65
2023-01-19T15:53:52.879Z,11.02
2023-01-19T15:56:34.716Z,9.73
2023-01-19T15:59:01.732Z,8.90
2023-01-19T16:01:33.791Z,10.20
2023-01-19T16:04:06.055Z,10.18
2023-01-19T16:06:32.801Z,10.90
2023-01-19T16:09:01.202Z,12.57
2023-01-19T16:11:30.873Z,11.45
2023-01-19T16:13:57.665Z,9.77
2023-01-19T16:16:25.871Z,8.25
2023-01-19T16:18:52.614Z,10.93
2023-01-19T16:21:19.483Z,9.00
2023-01-19T16:23:46.487Z,10.57
2023-01-19T16:26:34.121Z,10.45
2023-01-19T16:29:07.778Z,14.73
2023-01-19T16:31:34.514Z,11.63
2023-01-19T16:34:01.532Z,12.88
2023-01-19T16:36:30.694Z,11.82
2023-01-19T16:39:03.009Z,9.93
2023-01-19T16:41:29.727Z,8.40
2023-01-19T16:43:57.877Z,9.27
2023-01-19T16:46:30.460Z,8.30
2023-01-19T16:49:02.528Z,8.68
2023-01-19T16:51:29.886Z,8.23
2023-01-19T16:53:56.629Z,10.45
2023-01-19T16:56:23.319Z,7.05
2023-01-19T16:58:57.228Z,7.68
2023-01-19T17:01:26.225Z,7.50
2023-01-19T17:03:53.228Z,8.15
2023-01-19T17:06:24.174Z,7.53
2023-01-19T17:08:52.089Z,7.47
2023-01-19T17:11:21.654Z,7.18
2023-01-19T17:13:54.447Z,8.60
2023-01-19T17:16:22.364Z,7.25
2023-01-19T17:18:49.167Z,8.32
2023-01-19T17:21:17.833Z,7.55
2023-01-19T17:23:46.748Z,8.70
2023-01-19T17:26:14.494Z,9.35
2023-01-19T17:28:41.441Z,10.10
2023-01-19T17:31:19.907Z,11.15
2023-01-19T17:33:48.856Z,11.52
2023-01-19T17:36:20.408Z,11.35
2023-01-19T17:38:47.144Z,10.32
2023-01-19T17:41:19.250Z,10.98
2023-01-19T17:43:46.190Z,11.90
2023-01-19T17:46:13.341Z,10.45
2023-01-19T17:48:40.882Z,12.73
2023-01-19T17:51:10.662Z,11.40
2023-01-19T17:53:38.625Z,10.80
2023-01-19T17:56:15.952Z,10.23
2023-01-19T17:58:42.836Z,9.73
2023-01-19T18:01:09.716Z,9.82
2023-01-19T18:03:36.721Z,14.00
2023-01-19T18:06:03.500Z,13.23
2023-01-19T18:08:30.233Z,10.80
2023-01-19T18:10:58.570Z,11.32
2023-01-19T18:13:25.896Z,11.30
2023-01-19T18:16:01.936Z,11.35
2023-01-19T18:20:59.962Z,22.20
2023-01-19T18:23:27.057Z,14.80
2023-01-19T18:26:00.842Z,15.30
2023-01-19T18:28:28.194Z,11.27
2023-01-19T18:30:55.252Z,12.63
2023-01-19T18:33:22.153Z,12.38
2023-01-19T18:35:49.031Z,11.25
2023-01-19T18:38:15.829Z,11.80
2023-01-19T18:40:42.975Z,10.82
2023-01-19T18:43:11.143Z,12.02
2023-01-19T18:45:39.832Z,12.13
2023-01-19T18:48:06.595Z,10.80
2023-01-19T18:50:33.544Z,11.10
2023-01-19T18:53:00.202Z,11.55
2023-01-19T18:55:27.005Z,11.32
2023-01-19T18:57:53.827Z,10.63
2023-01-19T19:00:20.851Z,9.98
2023-01-19T19:02:47.519Z,10.85
2023-01-19T19:05:14.261Z,10.77
2023-01-19T19:07:40.920Z,10.80
2023-01-19T19:10:08.418Z,11.13
2023-01-19T19:12:35.447Z,11.93
2023-01-19T19:15:02.209Z,11.23
2023-01-19T19:17:29.049Z,12.30
2023-01-19T19:19:55.755Z,11.38
2023-01-19T19:22:25.376Z,11.63
2023-01-19T19:24:52.231Z,11.93
2023-01-19T19:27:18.900Z,12.27
2023-01-19T19:29:48.855Z,12.40
2023-01-19T19:32:20.475Z,11.90
2023-01-19T19:34:52.571Z,12.55
2023-01-19T19:37:20.081Z,13.35
2023-01-19T19:39:47.959Z,12.77
2023-01-19T19:42:14.864Z,13.70
2023-01-19T19:44:41.502Z,11.98
2023-01-19T19:47:08.377Z,13.20
2023-01-19T19:49:35.038Z,11.77
2023-01-19T19:52:01.735Z,12.23
2023-01-19T19:54:28.493Z,11.48
2023-01-19T19:56:55.204Z,12.27
2023-01-19T19:59:21.857Z,12.02
2023-01-19T20:01:49.801Z,12.00
2023-01-19T20:04:20.225Z,11.32
2023-01-19T20:06:48.315Z,11.00
2023-01-19T20:09:16.130Z,10.95
2023-01-19T20:11:44.718Z,10.60
2023-01-19T20:14:13.523Z,11.23
2023-01-19T20:16:40.273Z,10.68
2023-01-19T20:19:07.471Z,10.35
2023-01-19T20:21:37.183Z,10.75
2023-01-19T20:24:07.458Z,11.63
2023-01-19T20:26:36.426Z,11.07
2023-01-19T20:29:06.832Z,10.75
2023-01-19T20:31:36.967Z,11.27
2023-01-19T20:34:06.509Z,9.63
2023-01-19T20:36:33.399Z,11.40
2023-01-19T20:39:00.593Z,11.23
2023-01-19T20:41:27.545Z,10.93
2023-01-19T20:43:54.268Z,10.63
2023-01-19T20:46:21.031Z,11.10
2023-01-19T20:48:52.691Z,11.18
2023-01-19T20:51:20.263Z,12.25
2023-01-19T20:53:47.756Z,12.20
2023-01-19T20:56:15.209Z,11.82
2023-01-19T20:58:42.638Z,11.68
2023-01-19T21:01:11.188Z,11.20
2023-01-19T21:03:38.065Z,11.88
2023-01-19T21:06:05.351Z,10.68
2023-01-19T21:08:32.756Z,11.32
2023-01-19T21:10:59.569Z,11.68
2023-01-19T21:13:26.717Z,11.45
2023-01-19T21:15:53.907Z,10.77
2023-01-19T21:18:22.035Z,10.88
2023-01-19T21:20:49.266Z,11.85
2023-01-19T21:23:16.234Z,10.18
2023-01-19T21:25:54.745Z,10.68
2023-01-19T21:28:22.911Z,9.52
2023-01-19T21:30:50.321Z,10.90
2023-01-19T21:33:17.151Z,10.70
2023-01-19T21:35:55.609Z,10.35
2023-01-19T21:38:24.271Z,12.05
2023-01-19T21:40:51.147Z,9.68
2023-01-19T21:43:19.897Z,10.27
2023-01-19T21:45:47.725Z,9.27
2023-01-19T21:48:15.547Z,10.10
2023-01-19T21:50:42.423Z,10.48
2023-01-19T21:53:11.238Z,10.48
2023-01-19T21:55:43.010Z,11.00
2023-01-19T21:58:09.678Z,10.82
2023-01-19T22:00:36.381Z,11.13
2023-01-19T22:03:04.640Z,11.77
2023-01-19T22:05:36.744Z,10.15
2023-01-19T22:08:04.635Z,12.38
2023-01-19T22:10:31.389Z,10.65
2023-01-19T22:12:58.056Z,11.35
2023-01-19T22:15:24.852Z,12.77
2023-01-19T22:17:51.509Z,12.95
2023-01-19T22:20:18.331Z,11.68
2023-01-19T22:22:45.046Z,11.70
2023-01-19T22:25:11.982Z,11.38
2023-01-19T22:27:38.985Z,13.27
2023-01-19T22:30:06.288Z,10.65
2023-01-19T22:32:32.952Z,10.93
2023-01-19T22:34:59.648Z,12.00
2023-01-19T22:37:26.287Z,10.20
2023-01-19T22:39:53.411Z,10.88
2023-01-19T22:42:20.096Z,11.35
2023-01-19T22:44:46.875Z,11.65
2023-01-19T22:47:13.918Z,11.32
2023-01-19T22:49:40.762Z,12.15
2023-01-19T22:52:07.611Z,10.70
2023-01-19T22:54:34.305Z,10.65
2023-01-19T22:57:01.031Z,10.50
2023-01-19T22:59:27.801Z,12.13
2023-01-19T23:01:54.614Z,12.77
2023-01-19T23:04:21.405Z,10.45
2023-01-19T23:06:50.671Z,10.60
2023-01-19T23:09:18.528Z,10.77
2023-01-19T23:11:50.418Z,10.77
2023-01-19T23:14:20.716Z,11.35
2023-01-19T23:16:47.589Z,12.15
2023-01-19T23:19:17.073Z,11.77
2023-01-19T23:21:44.342Z,10.82
2023-01-19T23:24:11.380Z,11.73
2023-01-19T23:26:38.514Z,11.15
2023-01-19T23:29:12.680Z,11.57
2023-01-19T23:31:43.243Z,10.48
2023-01-19T23:34:11.130Z,13.07
2023-01-19T23:36:39.938Z,11.73
2023-01-19T23:39:19.092Z,12.05
2023-01-19T23:41:46.097Z,10.93
2023-01-19T23:44:12.871Z,12.02
2023-01-19T23:46:39.545Z,11.65
2023-01-19T23:49:06.338Z,11.20
2023-01-19T23:51:33.923Z,12.02
2023-01-19T23:54:01.247Z,10.60
2023-01-19T23:56:33.530Z,11.18
2023-01-19T23:59:08.500Z,11.35
